createdAt,value
2019-04-11T00:01:33.931Z,13.20
2019-04-11T00:03:54.059Z,14.20
2019-04-11T00:06:25.646Z,12.57
2019-04-11T00:08:56.488Z,13.20
2019-04-11T00:11:28.069Z,12.97
2019-04-11T00:13:59.891Z,12.68
2019-04-11T00:16:31.013Z,12.90
2019-04-11T00:19:03.139Z,13.22
2019-04-11T00:21:33.588Z,13.50
2019-04-11T00:24:04.889Z,11.10
2019-04-11T00:26:36.164Z,12.00
2019-04-11T00:29:06.589Z,10.80
2019-04-11T00:31:39.092Z,12.20
2019-04-11T00:34:10.954Z,10.85
2019-04-11T00:36:41.363Z,11.97
2019-04-11T00:39:13.283Z,10.70
2019-04-11T00:41:44.091Z,11.10
2019-04-11T00:44:17.068Z,11.65
2019-04-11T00:46:47.207Z,12.27
2019-04-11T00:49:19.665Z,11.63
2019-04-11T00:51:49.984Z,10.40
2019-04-11T00:54:20.230Z,11.27
2019-04-11T00:56:50.670Z,10.50
2019-04-11T00:59:22.245Z,13.05
2019-04-11T01:01:53.382Z,10.20
2019-04-11T01:04:23.611Z,10.30
2019-04-11T01:06:55.524Z,10.80
2019-04-11T01:09:26.410Z,9.93
2019-04-11T01:11:56.880Z,9.27
2019-04-11T01:14:27.910Z,10.40
2019-04-11T01:16:59.056Z,10.00
2019-04-11T01:19:29.543Z,9.33
2019-04-11T01:21:59.760Z,9.30
2019-04-11T01:24:30.025Z,10.60
2019-04-11T01:27:01.380Z,9.50
2019-04-11T01:29:31.596Z,9.97
2019-04-11T01:32:06.418Z,9.87
2019-04-11T01:34:37.693Z,9.53
2019-04-11T01:37:09.193Z,9.67
2019-04-11T01:40:01.567Z,9.37
2019-04-11T01:42:33.442Z,9.53
2019-04-11T01:45:05.235Z,10.60
2019-04-11T01:47:57.792Z,9.43
2019-04-11T01:50:31.163Z,8.87
2019-04-11T01:53:02.544Z,9.40
2019-04-11T01:55:33.188Z,8.80
2019-04-11T01:58:04.523Z,9.17
2019-04-11T02:00:44.165Z,10.25
2019-04-11T02:03:16.939Z,10.20
2019-04-11T02:05:49.488Z,9.70
2019-04-11T02:08:20.572Z,11.08
2019-04-11T02:10:50.892Z,9.40
2019-04-11T02:13:20.934Z,10.20
2019-04-11T02:15:51.050Z,8.97
2019-04-11T02:18:21.485Z,9.57
2019-04-11T02:20:51.663Z,9.60
2019-04-11T02:23:30.938Z,10.23
2019-04-11T02:26:13.411Z,11.80
2019-04-11T02:28:44.624Z,11.20
2019-04-11T02:31:14.918Z,11.57
2019-04-11T02:33:46.901Z,11.70
2019-04-11T02:36:18.901Z,11.25
2019-04-11T02:38:54.151Z,10.13
2019-04-11T02:41:21.543Z,10.47
2019-04-11T02:43:52.535Z,10.60
2019-04-11T02:46:33.077Z,10.13
2019-04-11T02:48:56.610Z,10.23
2019-04-11T02:51:27.130Z,11.27
2019-04-11T02:53:59.191Z,11.13
2019-04-11T02:56:31.092Z,11.00
2019-04-11T02:59:04.440Z,10.20
2019-04-11T03:01:36.153Z,10.60
2019-04-11T03:04:07.501Z,10.17
2019-04-11T03:06:39.677Z,10.40
2019-04-11T03:09:10.927Z,11.10
2019-04-11T03:11:42.909Z,12.87
2019-04-11T03:14:14.265Z,10.00
2019-04-11T03:16:56.261Z,11.27
2019-04-11T03:19:29.734Z,11.13
2019-04-11T03:21:50.309Z,10.53
2019-04-11T03:24:24.187Z,10.07
2019-04-11T03:26:55.028Z,10.40
2019-04-11T03:29:28.607Z,9.40
2019-04-11T03:35:20.383Z,10.80
2019-04-11T03:37:26.162Z,9.93
2019-04-11T03:39:56.828Z,10.37
2019-04-11T03:42:25.086Z,9.70
2019-04-11T03:44:47.066Z,9.60
2019-04-11T03:47:31.097Z,10.57
2019-04-11T03:49:51.967Z,10.10
2019-04-11T03:52:19.166Z,9.60
2019-04-11T03:54:50.138Z,10.60
2019-04-11T03:57:21.518Z,10.70
2019-04-11T03:59:52.213Z,10.40
2019-04-11T04:02:24.314Z,9.63
2019-04-11T04:04:54.750Z,10.63
2019-04-11T04:07:25.141Z,9.80
2019-04-11T04:09:56.125Z,10.15
2019-04-11T04:12:27.337Z,11.23
2019-04-11T04:15:33.971Z,10.87
2019-04-11T04:18:00.235Z,10.80
2019-04-11T04:20:48.946Z,10.10
2019-04-11T04:23:22.932Z,11.13
2019-04-11T04:25:54.466Z,11.07
2019-04-11T04:28:24.831Z,9.87
2019-04-11T04:30:56.065Z,11.10
2019-04-11T04:33:27.424Z,10.47
2019-04-11T04:36:00.244Z,12.23
2019-04-11T04:38:31.545Z,11.97
2019-04-11T04:41:14.980Z,11.13
2019-04-11T04:43:36.453Z,11.50
2019-04-11T04:46:23.750Z,12.30
2019-04-11T04:48:40.536Z,11.87
2019-04-11T04:51:13.307Z,11.50
2019-04-11T04:53:43.126Z,11.37
2019-04-11T04:56:15.747Z,10.43
2019-04-11T04:58:46.744Z,10.90
2019-04-11T05:01:19.361Z,10.80
2019-04-11T05:03:50.931Z,10.40
2019-04-11T05:06:21.175Z,10.17
2019-04-11T05:08:51.493Z,10.53
2019-04-11T05:11:23.160Z,10.43
2019-04-11T05:13:54.503Z,11.03
2019-04-11T05:16:25.115Z,10.20
2019-04-11T05:18:56.695Z,9.83
2019-04-11T05:21:29.628Z,9.60
2019-04-11T05:23:59.977Z,9.93
2019-04-11T05:26:31.389Z,9.87
2019-04-11T05:29:02.730Z,10.13
2019-04-11T05:31:33.018Z,9.67
2019-04-11T05:34:03.528Z,9.87
2019-04-11T05:36:34.043Z,14.63
2019-04-11T05:39:06.627Z,13.83
2019-04-11T05:41:37.643Z,14.47
2019-04-11T05:44:10.837Z,13.63
2019-04-11T05:46:49.153Z,14.47
2019-04-11T05:49:37.299Z,22.50
2019-04-11T05:52:08.137Z,18.70
2019-04-11T05:54:47.603Z,10.87
2019-04-11T05:57:20.843Z,11.00
2019-04-11T05:59:52.071Z,9.50
2019-04-11T06:02:43.436Z,9.80
2019-04-11T06:05:30.919Z,11.03
2019-04-11T06:08:02.624Z,13.60
2019-04-11T06:10:52.922Z,13.07
2019-04-11T06:13:28.812Z,10.33
2019-04-11T06:16:01.550Z,8.70
2019-04-11T06:18:59.164Z,9.83
2019-04-11T06:21:33.995Z,9.63
2019-04-11T06:24:22.471Z,9.50
2019-04-11T06:27:22.180Z,10.00
2019-04-11T06:30:12.352Z,10.20
2019-04-11T06:33:00.394Z,10.60
2019-04-11T06:35:48.599Z,12.57
2019-04-11T06:38:40.807Z,9.70
2019-04-11T06:41:24.461Z,10.60
2019-04-11T06:44:19.986Z,12.07
2019-04-11T06:47:08.331Z,11.18
2019-04-11T06:49:55.103Z,11.53
2019-04-11T06:52:26.663Z,10.47
2019-04-11T06:55:30.815Z,10.50
2019-04-11T06:58:15.038Z,11.80
2019-04-11T07:00:48.149Z,12.03
2019-04-11T07:03:25.922Z,11.80
2019-04-11T07:05:55.333Z,11.27
2019-04-11T07:08:29.978Z,14.23
2019-04-11T07:11:04.015Z,12.03
2019-04-11T07:13:43.365Z,11.70
2019-04-11T07:16:15.433Z,11.73
2019-04-11T07:19:05.067Z,10.73
2019-04-11T07:21:36.463Z,12.33
2019-04-11T07:24:24.713Z,11.40
2019-04-11T07:27:13.956Z,11.83
2019-04-11T07:30:07.290Z,13.07
2019-04-11T07:32:38.894Z,11.93
2019-04-11T07:35:45.204Z,12.30
2019-04-11T07:38:22.549Z,13.30
2019-04-11T07:41:10.983Z,13.93
2019-04-11T07:43:43.233Z,12.60
2019-04-11T07:46:32.864Z,13.60
2019-04-11T07:49:08.036Z,13.33
2019-04-11T07:51:45.011Z,12.50
2019-04-11T07:54:18.057Z,13.07
2019-04-11T07:57:08.355Z,13.20
2019-04-11T08:00:03.839Z,13.37
2019-04-11T08:02:57.453Z,13.23
2019-04-11T08:05:51.374Z,16.03
2019-04-11T08:08:52.649Z,18.50
2019-04-11T08:11:47.719Z,16.47
2019-04-11T08:14:35.607Z,11.87
2019-04-11T08:17:26.995Z,12.10
2019-04-11T08:20:25.654Z,12.43
2019-04-11T08:22:59.124Z,13.53
2019-04-11T08:25:57.787Z,12.47
2019-04-11T08:28:28.982Z,11.60
2019-04-11T08:31:19.383Z,11.33
2019-04-11T08:33:51.366Z,11.23
2019-04-11T08:36:44.213Z,10.90
2019-04-11T08:39:20.698Z,11.30
2019-04-11T08:42:09.967Z,11.50
2019-04-11T08:44:42.239Z,11.80
2019-04-11T08:47:14.694Z,11.90
2019-04-11T08:49:54.334Z,11.50
2019-04-11T08:52:36.399Z,11.50
2019-04-11T08:55:21.035Z,13.13
2019-04-11T08:58:02.908Z,11.00
2019-04-11T09:00:48.996Z,11.60
2019-04-11T09:03:40.540Z,11.90
2019-04-11T09:06:14.569Z,11.37
2019-04-11T09:09:02.968Z,12.30
2019-04-11T09:11:47.019Z,12.00
2019-04-11T09:14:36.030Z,12.93
2019-04-11T09:17:12.331Z,12.23
2019-04-11T09:20:07.557Z,13.00
2019-04-11T09:23:12.014Z,13.97
2019-04-11T09:26:01.543Z,13.80
2019-04-11T09:28:44.050Z,13.37
2019-04-11T09:31:43.886Z,13.83
2019-04-11T09:34:33.596Z,13.70
2019-04-11T09:37:13.936Z,13.27
2019-04-11T09:40:03.714Z,13.58
2019-04-11T09:42:53.469Z,12.67
2019-04-11T09:46:01.930Z,13.07
2019-04-11T09:48:46.316Z,12.07
2019-04-11T09:51:42.315Z,12.13
2019-04-11T09:54:24.291Z,11.83
2019-04-11T09:57:22.923Z,12.60
2019-04-11T10:00:12.425Z,10.73
2019-04-11T10:02:56.154Z,13.00
2019-04-11T10:05:46.938Z,12.20
2019-04-11T10:08:43.654Z,11.93
2019-04-11T10:11:55.299Z,10.73
2019-04-11T10:14:29.310Z,11.10
2019-04-11T10:17:17.336Z,10.40
2019-04-11T10:19:54.242Z,10.50
2019-04-11T10:22:48.129Z,9.07
2019-04-11T10:25:35.154Z,8.50
2019-04-11T10:28:30.671Z,9.28
2019-04-11T10:31:32.565Z,8.65
2019-04-11T10:34:23.748Z,8.70
2019-04-11T10:37:11.779Z,8.85
2019-04-11T10:40:00.373Z,8.93
2019-04-11T10:42:32.865Z,9.55
2019-04-11T10:45:22.894Z,9.63
2019-04-11T10:47:58.946Z,9.15
2019-04-11T10:50:54.356Z,8.08
2019-04-11T10:53:26.992Z,9.63
2019-04-11T10:56:28.526Z,8.23
2019-04-11T10:59:01.670Z,8.38
2019-04-11T11:01:52.675Z,9.68
2019-04-11T11:04:26.113Z,10.05
2019-04-11T11:07:00.153Z,8.83
2019-04-11T11:09:37.284Z,9.23
2019-04-11T11:12:27.491Z,8.08
2019-04-11T11:15:07.259Z,8.60
2019-04-11T11:18:35.082Z,8.23
2019-04-11T11:20:55.058Z,8.68
2019-04-11T11:23:42.961Z,8.40
2019-04-11T11:26:24.243Z,10.23
2019-04-11T11:29:15.158Z,10.28
2019-04-11T11:32:03.147Z,10.43
2019-04-11T11:34:51.779Z,12.35
2019-04-11T11:37:51.233Z,12.25
2019-04-11T11:40:41.667Z,11.83
2019-04-11T11:43:25.781Z,12.18
2019-04-11T11:46:30.984Z,10.93
2019-04-11T11:49:02.926Z,10.43
2019-04-11T11:52:11.246Z,9.30
2019-04-11T11:54:46.090Z,12.00
2019-04-11T11:57:23.791Z,10.55
2019-04-11T12:00:02.963Z,11.37
2019-04-11T12:02:54.387Z,11.93
2019-04-11T12:05:29.556Z,12.53
2019-04-11T12:08:28.662Z,13.70
2019-04-11T12:11:08.222Z,15.13
2019-04-11T12:13:57.869Z,15.90
2019-04-11T12:16:52.026Z,15.23
2019-04-11T12:19:26.763Z,14.60
2019-04-11T12:21:58.265Z,15.63
2019-04-11T12:24:41.197Z,15.13
2019-04-11T12:27:29.139Z,14.67
2019-04-11T12:30:37.348Z,13.97
2019-04-11T12:33:27.669Z,15.50
2019-04-11T12:36:09.913Z,13.97
2019-04-11T12:38:58.081Z,13.57
2019-04-11T12:41:43.406Z,14.77
2019-04-11T12:44:39.386Z,14.27
2019-04-11T12:47:39.198Z,12.70
2019-04-11T12:50:30.394Z,12.55
2019-04-11T12:53:12.181Z,13.25
2019-04-11T12:55:50.074Z,14.23
2019-04-11T12:58:42.298Z,14.27
2019-04-11T13:01:41.730Z,15.03
2019-04-11T13:04:29.720Z,15.53
2019-04-11T13:07:34.469Z,15.47
2019-04-11T13:10:28.766Z,15.50
2019-04-11T13:13:24.405Z,16.10
2019-04-11T13:16:11.100Z,14.97
2019-04-11T13:18:53.758Z,15.23
2019-04-11T13:21:30.960Z,15.60
2019-04-11T13:24:23.299Z,15.10
2019-04-11T13:27:18.521Z,14.07
2019-04-11T13:30:07.745Z,14.47
2019-04-11T13:33:03.090Z,15.70
2019-04-11T13:36:04.615Z,14.13
2019-04-11T13:38:46.547Z,15.35
2019-04-11T13:41:35.244Z,13.55
2019-04-11T13:44:11.378Z,13.05
2019-04-11T13:46:59.770Z,12.30
2019-04-11T13:49:48.965Z,12.35
2019-04-11T13:52:38.433Z,12.60
2019-04-11T13:55:23.082Z,11.20
2019-04-11T13:58:12.255Z,11.08
2019-04-11T14:00:53.094Z,11.15
2019-04-11T14:03:48.575Z,11.88
2019-04-11T14:06:21.847Z,14.47
2019-04-11T14:09:20.535Z,17.10
2019-04-11T14:11:53.269Z,16.70
2019-04-11T14:14:27.049Z,22.17
2019-04-11T14:17:16.314Z,19.00
2019-04-11T14:20:04.214Z,20.13
2019-04-11T14:22:48.542Z,19.80
2019-04-11T14:25:44.234Z,20.20
2019-04-11T14:28:14.684Z,20.80
2019-04-11T14:31:21.902Z,19.60
2019-04-11T14:33:56.013Z,20.20
2019-04-11T14:36:54.755Z,19.17
2019-04-11T14:39:26.862Z,19.30
2019-04-11T14:42:19.029Z,20.17
2019-04-11T14:44:51.237Z,20.40
2019-04-11T14:47:40.475Z,19.27
2019-04-11T14:50:11.732Z,19.40
2019-04-11T14:52:53.339Z,19.53
2019-04-11T14:55:25.086Z,20.50
2019-04-11T14:58:17.707Z,20.47
2019-04-11T15:00:53.757Z,18.50
2019-04-11T15:03:44.991Z,18.63
2019-04-11T15:06:28.183Z,18.27
2019-04-11T15:09:17.912Z,18.40
2019-04-11T15:12:01.343Z,18.80
2019-04-11T15:14:51.783Z,19.67
2019-04-11T15:17:40.689Z,21.33
2019-04-11T15:20:18.724Z,18.30
2019-04-11T15:22:52.693Z,19.00
2019-04-11T15:25:43.249Z,19.00
2019-04-11T15:28:31.344Z,18.80
2019-04-11T15:31:08.711Z,17.50
2019-04-11T15:33:56.896Z,18.60
2019-04-11T15:36:27.883Z,18.73
2019-04-11T15:39:20.526Z,17.90
2019-04-11T15:41:55.406Z,19.70
2019-04-11T15:44:44.450Z,17.80
2019-04-11T15:47:18.700Z,20.80
2019-04-11T15:50:09.603Z,24.03
2019-04-11T15:52:45.352Z,21.93
2019-04-11T15:55:37.536Z,18.13
2019-04-11T15:58:07.785Z,19.13
2019-04-11T16:01:09.388Z,18.50
2019-04-11T16:03:40.081Z,18.23
2019-04-11T16:06:30.491Z,18.57
2019-04-11T16:09:09.701Z,17.50
2019-04-11T16:12:07.933Z,17.87
2019-04-11T16:14:39.807Z,16.62
2019-04-11T16:17:29.116Z,17.70
2019-04-11T16:20:07.903Z,18.20
2019-04-11T16:23:15.257Z,17.10
2019-04-11T16:25:51.235Z,15.90
2019-04-11T16:28:46.784Z,17.50
2019-04-11T16:31:16.995Z,17.77
2019-04-11T16:34:06.208Z,16.87
2019-04-11T16:36:40.513Z,17.20
2019-04-11T16:39:52.178Z,15.80
2019-04-11T16:42:43.024Z,15.23
2019-04-11T16:45:38.551Z,16.80
2019-04-11T16:48:09.083Z,15.50
2019-04-11T16:50:39.396Z,16.27
2019-04-11T16:53:11.483Z,16.10
2019-04-11T16:55:43.343Z,16.17
2019-04-11T16:58:17.000Z,16.80
2019-04-11T17:00:52.086Z,16.12
2019-04-11T17:03:19.918Z,15.70
2019-04-11T17:06:09.463Z,15.90
2019-04-11T17:08:47.491Z,16.67
2019-04-11T17:11:20.828Z,17.57
2019-04-11T17:13:51.389Z,16.50
2019-04-11T17:16:22.291Z,15.57
2019-04-11T17:18:52.671Z,16.30
2019-04-11T17:21:23.390Z,15.50
2019-04-11T17:23:54.760Z,17.20
2019-04-11T17:26:25.230Z,18.93
2019-04-11T17:28:57.260Z,16.87
2019-04-11T17:31:28.060Z,17.15
2019-04-11T17:34:01.429Z,18.20
2019-04-11T17:36:33.683Z,16.67
2019-04-11T17:39:06.738Z,17.70
2019-04-11T17:41:36.979Z,16.80
2019-04-11T17:44:07.455Z,15.10
2019-04-11T17:46:38.160Z,17.13
2019-04-11T17:49:08.677Z,15.43
2019-04-11T17:51:38.998Z,17.50
2019-04-11T17:54:09.249Z,15.23
2019-04-11T17:56:39.455Z,15.80
2019-04-11T17:59:12.163Z,15.23
2019-04-11T18:01:45.654Z,15.67
2019-04-11T18:04:15.917Z,16.47
2019-04-11T18:06:47.773Z,16.80
2019-04-11T18:09:20.425Z,19.30
2019-04-11T18:11:51.001Z,16.73
2019-04-11T18:14:21.451Z,18.47
2019-04-11T18:16:52.040Z,17.13
2019-04-11T18:19:22.678Z,27.93
2019-04-11T18:21:52.944Z,18.95
2019-04-11T18:24:24.201Z,16.93
2019-04-11T18:26:55.063Z,17.33
2019-04-11T18:29:25.572Z,17.90
2019-04-11T18:31:56.427Z,16.73
2019-04-11T18:34:27.371Z,15.83
2019-04-11T18:37:01.646Z,17.70
2019-04-11T18:39:30.138Z,15.23
2019-04-11T18:42:00.866Z,16.43
2019-04-11T18:44:31.670Z,15.50
2019-04-11T18:47:04.366Z,15.77
2019-04-11T18:49:35.200Z,15.10
2019-04-11T18:52:05.796Z,15.23
2019-04-11T18:54:36.133Z,15.83
2019-04-11T18:57:06.662Z,14.77
2019-04-11T18:59:37.487Z,15.70
2019-04-11T19:02:09.823Z,14.63
2019-04-11T19:04:42.227Z,15.07
2019-04-11T19:07:13.851Z,14.47
2019-04-11T19:09:45.034Z,15.23
2019-04-11T19:12:16.439Z,14.20
2019-04-11T19:14:48.165Z,15.30
2019-04-11T19:17:19.180Z,17.50
2019-04-11T19:19:50.233Z,15.10
2019-04-11T19:22:36.664Z,15.93
2019-04-11T19:24:53.142Z,16.40
2019-04-11T19:27:23.936Z,15.00
2019-04-11T19:29:55.964Z,14.40
2019-04-11T19:32:27.921Z,15.67
2019-04-11T19:34:58.824Z,17.00
2019-04-11T19:37:29.264Z,16.02
2019-04-11T19:40:00.483Z,15.37
2019-04-11T19:42:31.524Z,15.67
2019-04-11T19:45:03.056Z,15.17
2019-04-11T19:47:34.997Z,13.30
2019-04-11T19:50:06.988Z,14.23
2019-04-11T19:52:45.111Z,14.23
2019-04-11T19:55:39.633Z,13.37
2019-04-11T19:58:10.037Z,15.40
2019-04-11T20:00:41.080Z,12.67
2019-04-11T20:03:12.121Z,14.57
2019-04-11T20:05:42.967Z,18.60
2019-04-11T20:08:13.555Z,13.80
2019-04-11T20:10:44.259Z,14.90
2019-04-11T20:13:14.745Z,16.43
2019-04-11T20:15:46.580Z,14.30
2019-04-11T20:18:16.977Z,14.20
2019-04-11T20:20:49.068Z,14.67
2019-04-11T20:23:19.756Z,15.10
2019-04-11T20:25:50.380Z,15.00
2019-04-11T20:28:20.996Z,14.15
2019-04-11T20:30:52.797Z,14.17
2019-04-11T20:33:27.312Z,13.13
2019-04-11T20:35:56.531Z,12.67
2019-04-11T20:38:26.743Z,12.33
2019-04-11T20:40:57.527Z,13.90
2019-04-11T20:43:28.002Z,13.00
2019-04-11T20:45:58.744Z,13.37
2019-04-11T20:48:30.912Z,13.50
2019-04-11T20:51:01.168Z,13.37
2019-04-11T20:53:36.593Z,13.90
2019-04-11T20:56:04.885Z,13.57
2019-04-11T20:58:35.113Z,13.10
2019-04-11T21:01:05.616Z,13.00
2019-04-11T21:03:36.090Z,13.53
2019-04-11T21:06:06.307Z,14.43
2019-04-11T21:08:36.877Z,13.70
2019-04-11T21:11:07.042Z,13.30
2019-04-11T21:13:38.366Z,13.50
2019-04-11T21:16:09.709Z,12.77
2019-04-11T21:18:41.139Z,12.67
2019-04-11T21:21:11.478Z,11.80
2019-04-11T21:23:41.840Z,14.18
2019-04-11T21:26:12.100Z,13.20
2019-04-11T21:28:42.418Z,12.83
2019-04-11T21:31:13.053Z,12.33
2019-04-11T21:33:43.316Z,12.40
2019-04-11T21:36:13.826Z,12.60
2019-04-11T21:38:47.067Z,12.53
2019-04-11T21:41:17.275Z,14.30
2019-04-11T21:43:48.102Z,12.70
2019-04-11T21:46:18.380Z,12.83
2019-04-11T21:48:48.636Z,11.97
2019-04-11T21:51:19.046Z,13.37
2019-04-11T21:53:51.820Z,10.77
2019-04-11T21:56:22.088Z,13.30
2019-04-11T21:58:52.390Z,12.30
2019-04-11T22:01:24.808Z,11.53
2019-04-11T22:03:57.714Z,11.67
2019-04-11T22:06:30.531Z,11.63
2019-04-11T22:09:04.847Z,13.00
2019-04-11T22:11:34.036Z,11.40
2019-04-11T22:14:04.240Z,10.87
2019-04-11T22:16:34.475Z,11.33
2019-04-11T22:19:05.277Z,11.20
2019-04-11T22:21:35.607Z,10.77
2019-04-11T22:24:06.002Z,11.30
2019-04-11T22:26:36.322Z,12.70
2019-04-11T22:29:07.350Z,9.80
2019-04-11T22:31:37.526Z,10.87
2019-04-11T22:34:12.909Z,11.00
2019-04-11T22:36:43.166Z,10.17
2019-04-11T22:39:13.557Z,10.17
2019-04-11T22:41:44.014Z,10.00
2019-04-11T22:44:14.168Z,10.07
2019-04-11T22:46:44.562Z,10.40
2019-04-11T22:49:14.896Z,10.07
2019-04-11T22:51:45.136Z,11.00
2019-04-11T22:54:15.486Z,10.43
2019-04-11T22:56:46.306Z,10.30
2019-04-11T22:59:16.706Z,10.40
2019-04-11T23:01:47.590Z,10.73
2019-04-11T23:04:17.717Z,11.00
2019-04-11T23:06:47.971Z,10.60
2019-04-11T23:09:19.793Z,11.57
2019-04-11T23:11:50.236Z,11.17
2019-04-11T23:14:20.461Z,11.07
2019-04-11T23:16:50.632Z,10.50
2019-04-11T23:19:21.000Z,9.93
2019-04-11T23:21:52.460Z,10.03
2019-04-11T23:24:22.971Z,10.80
2019-04-11T23:26:53.494Z,11.03
2019-04-11T23:29:23.736Z,9.40
2019-04-11T23:31:53.989Z,10.07
2019-04-11T23:34:24.226Z,8.90
2019-04-11T23:36:54.387Z,9.30
2019-04-11T23:39:24.505Z,9.53
2019-04-11T23:41:54.772Z,9.97
2019-04-11T23:44:24.988Z,10.70
2019-04-11T23:46:55.230Z,10.13
2019-04-11T23:49:25.820Z,10.43
2019-04-11T23:51:56.549Z,10.17
2019-04-11T23:54:29.229Z,10.07
2019-04-11T23:57:01.075Z,9.68
2019-04-11T23:59:32.748Z,9.37
